sensor_id;sensor_type;location;lat;lon;timestamp;temperature;humidity
36374;DHT22;22399;51.346;12.372;2023-09-07T00:01:09;18.50;70.30
36374;DHT22;22399;51.346;12.372;2023-09-07T00:03:37;18.40;70.50
36374;DHT22;22399;51.346;12.372;2023-09-07T00:06:09;18.40;70.70
36374;DHT22;22399;51.346;12.372;2023-09-07T00:08:37;18.30;70.90
36374;DHT22;22399;51.346;12.372;2023-09-07T00:11:07;18.30;71.00
36374;DHT22;22399;51.346;12.372;2023-09-07T00:13:36;18.30;71.10
36374;DHT22;22399;51.346;12.372;2023-09-07T00:16:06;18.30;71.40
36374;DHT22;22399;51.346;12.372;2023-09-07T00:18:36;18.40;71.50
36374;DHT22;22399;51.346;12.372;2023-09-07T00:21:04;18.30;71.50
36374;DHT22;22399;51.346;12.372;2023-09-07T00:23:33;18.30;71.60
36374;DHT22;22399;51.346;12.372;2023-09-07T00:26:02;18.30;71.70
36374;DHT22;22399;51.346;12.372;2023-09-07T00:28:30;18.30;71.80
36374;DHT22;22399;51.346;12.372;2023-09-07T00:30:59;18.30;72.00
36374;DHT22;22399;51.346;12.372;2023-09-07T00:33:29;18.20;72.10
36374;DHT22;22399;51.346;12.372;2023-09-07T00:35:57;18.20;72.30
36374;DHT22;22399;51.346;12.372;2023-09-07T00:38:26;18.20;72.40
36374;DHT22;22399;51.346;12.372;2023-09-07T00:40:54;18.20;72.50
36374;DHT22;22399;51.346;12.372;2023-09-07T00:43:23;18.10;72.70
36374;DHT22;22399;51.346;12.372;2023-09-07T00:45:51;18.10;72.90
36374;DHT22;22399;51.346;12.372;2023-09-07T00:48:19;18.10;73.10
36374;DHT22;22399;51.346;12.372;2023-09-07T00:50:50;18.10;73.20
36374;DHT22;22399;51.346;12.372;2023-09-07T00:53:18;18.10;73.40
36374;DHT22;22399;51.346;12.372;2023-09-07T00:55:47;18.10;73.60
36374;DHT22;22399;51.346;12.372;2023-09-07T00:58:16;18.10;73.80
36374;DHT22;22399;51.346;12.372;2023-09-07T01:00:44;18.10;73.90
36374;DHT22;22399;51.346;12.372;2023-09-07T01:03:14;18.00;74.70
36374;DHT22;22399;51.346;12.372;2023-09-07T01:05:47;18.00;74.90
36374;DHT22;22399;51.346;12.372;2023-09-07T01:08:24;18.00;74.30
36374;DHT22;22399;51.346;12.372;2023-09-07T01:10:53;17.90;74.50
36374;DHT22;22399;51.346;12.372;2023-09-07T01:13:22;17.90;74.80
36374;DHT22;22399;51.346;12.372;2023-09-07T01:15:50;17.80;75.00
36374;DHT22;22399;51.346;12.372;2023-09-07T01:18:19;17.80;75.20
36374;DHT22;22399;51.346;12.372;2023-09-07T01:20:52;17.70;75.30
36374;DHT22;22399;51.346;12.372;2023-09-07T01:23:23;17.70;75.50
36374;DHT22;22399;51.346;12.372;2023-09-07T01:25:53;17.60;75.70
36374;DHT22;22399;51.346;12.372;2023-09-07T01:28:22;17.60;75.90
36374;DHT22;22399;51.346;12.372;2023-09-07T01:30:51;17.60;76.20
36374;DHT22;22399;51.346;12.372;2023-09-07T01:33:20;17.60;76.20
36374;DHT22;22399;51.346;12.372;2023-09-07T01:35:50;17.60;76.40
36374;DHT22;22399;51.346;12.372;2023-09-07T01:38:18;17.50;76.60
36374;DHT22;22399;51.346;12.372;2023-09-07T01:40:48;17.50;76.70
36374;DHT22;22399;51.346;12.372;2023-09-07T01:43:17;17.50;76.90
36374;DHT22;22399;51.346;12.372;2023-09-07T01:45:45;17.50;77.00
36374;DHT22;22399;51.346;12.372;2023-09-07T01:48:14;17.40;77.90
36374;DHT22;22399;51.346;12.372;2023-09-07T01:50:43;17.40;77.40
36374;DHT22;22399;51.346;12.372;2023-09-07T01:53:11;17.40;77.60
36374;DHT22;22399;51.346;12.372;2023-09-07T01:55:39;17.40;77.80
36374;DHT22;22399;51.346;12.372;2023-09-07T01:58:09;17.30;77.90
36374;DHT22;22399;51.346;12.372;2023-09-07T02:00:38;17.30;78.10
36374;DHT22;22399;51.346;12.372;2023-09-07T02:03:06;17.20;78.30
36374;DHT22;22399;51.346;12.372;2023-09-07T02:05:35;17.10;78.50
36374;DHT22;22399;51.346;12.372;2023-09-07T02:08:04;17.00;79.50
36374;DHT22;22399;51.346;12.372;2023-09-07T02:10:33;17.00;78.90
36374;DHT22;22399;51.346;12.372;2023-09-07T02:13:01;17.00;79.00
36374;DHT22;22399;51.346;12.372;2023-09-07T02:15:32;17.00;79.30
36374;DHT22;22399;51.346;12.372;2023-09-07T02:18:01;16.90;79.50
36374;DHT22;22399;51.346;12.372;2023-09-07T02:20:32;16.90;79.70
36374;DHT22;22399;51.346;12.372;2023-09-07T02:23:00;16.80;79.80
36374;DHT22;22399;51.346;12.372;2023-09-07T02:25:29;16.80;80.10
36374;DHT22;22399;51.346;12.372;2023-09-07T02:27:58;16.80;80.20
36374;DHT22;22399;51.346;12.372;2023-09-07T02:30:26;16.70;80.30
36374;DHT22;22399;51.346;12.372;2023-09-07T02:32:56;16.70;81.30
36374;DHT22;22399;51.346;12.372;2023-09-07T02:35:26;16.60;80.80
36374;DHT22;22399;51.346;12.372;2023-09-07T02:37:55;16.60;81.10
36374;DHT22;22399;51.346;12.372;2023-09-07T02:40:23;16.50;81.30
36374;DHT22;22399;51.346;12.372;2023-09-07T02:42:51;16.50;81.50
36374;DHT22;22399;51.346;12.372;2023-09-07T02:45:19;16.50;81.80
36374;DHT22;22399;51.346;12.372;2023-09-07T02:47:48;16.50;82.00
36374;DHT22;22399;51.346;12.372;2023-09-07T02:50:19;16.40;82.10
36374;DHT22;22399;51.346;12.372;2023-09-07T02:52:48;16.40;82.20
36374;DHT22;22399;51.346;12.372;2023-09-07T02:55:16;16.30;82.40
36374;DHT22;22399;51.346;12.372;2023-09-07T02:57:44;16.30;82.60
36374;DHT22;22399;51.346;12.372;2023-09-07T03:00:13;16.30;82.80
36374;DHT22;22399;51.346;12.372;2023-09-07T03:02:43;16.30;83.00
36374;DHT22;22399;51.346;12.372;2023-09-07T03:05:12;16.40;83.20
36374;DHT22;22399;51.346;12.372;2023-09-07T03:07:44;16.30;83.20
36374;DHT22;22399;51.346;12.372;2023-09-07T03:10:13;16.40;83.40
36374;DHT22;22399;51.346;12.372;2023-09-07T03:12:44;16.40;83.60
36374;DHT22;22399;51.346;12.372;2023-09-07T03:15:13;16.40;83.70
36374;DHT22;22399;51.346;12.372;2023-09-07T03:17:42;16.40;83.90
36374;DHT22;22399;51.346;12.372;2023-09-07T03:20:11;16.50;84.00
36374;DHT22;22399;51.346;12.372;2023-09-07T03:22:46;16.50;84.00
36374;DHT22;22399;51.346;12.372;2023-09-07T03:25:14;16.50;84.00
36374;DHT22;22399;51.346;12.372;2023-09-07T03:27:43;16.50;84.10
36374;DHT22;22399;51.346;12.372;2023-09-07T03:30:13;16.60;84.10
36374;DHT22;22399;51.346;12.372;2023-09-07T03:32:42;16.60;84.20
36374;DHT22;22399;51.346;12.372;2023-09-07T03:35:11;16.60;84.30
36374;DHT22;22399;51.346;12.372;2023-09-07T03:37:41;16.60;84.30
36374;DHT22;22399;51.346;12.372;2023-09-07T03:40:11;16.50;84.20
36374;DHT22;22399;51.346;12.372;2023-09-07T03:42:40;16.50;84.40
36374;DHT22;22399;51.346;12.372;2023-09-07T03:45:10;16.50;84.60
36374;DHT22;22399;51.346;12.372;2023-09-07T03:47:38;16.40;84.70
36374;DHT22;22399;51.346;12.372;2023-09-07T03:50:08;16.40;84.80
36374;DHT22;22399;51.346;12.372;2023-09-07T03:52:37;16.30;85.00
36374;DHT22;22399;51.346;12.372;2023-09-07T03:55:07;16.30;85.10
36374;DHT22;22399;51.346;12.372;2023-09-07T03:57:38;16.30;85.40
36374;DHT22;22399;51.346;12.372;2023-09-07T04:00:08;16.20;85.50
36374;DHT22;22399;51.346;12.372;2023-09-07T04:02:42;16.20;85.80
36374;DHT22;22399;51.346;12.372;2023-09-07T04:05:11;16.10;86.00
36374;DHT22;22399;51.346;12.372;2023-09-07T04:07:39;16.10;86.10
36374;DHT22;22399;51.346;12.372;2023-09-07T04:10:08;16.00;86.20
36374;DHT22;22399;51.346;12.372;2023-09-07T04:12:38;16.00;86.60
36374;DHT22;22399;51.346;12.372;2023-09-07T04:15:07;15.90;86.70
36374;DHT22;22399;51.346;12.372;2023-09-07T04:17:37;15.90;86.90
36374;DHT22;22399;51.346;12.372;2023-09-07T04:20:09;15.90;88.00
36374;DHT22;22399;51.346;12.372;2023-09-07T04:22:39;15.90;87.50
36374;DHT22;22399;51.346;12.372;2023-09-07T04:25:08;15.80;87.70
36374;DHT22;22399;51.346;12.372;2023-09-07T04:27:38;15.80;88.00
36374;DHT22;22399;51.346;12.372;2023-09-07T04:30:09;15.80;88.30
36374;DHT22;22399;51.346;12.372;2023-09-07T04:32:37;15.80;88.40
36374;DHT22;22399;51.346;12.372;2023-09-07T04:35:07;15.70;89.30
36374;DHT22;22399;51.346;12.372;2023-09-07T04:37:36;15.70;88.90
36374;DHT22;22399;51.346;12.372;2023-09-07T04:40:06;15.80;89.10
36374;DHT22;22399;51.346;12.372;2023-09-07T04:42:34;15.80;89.30
36374;DHT22;22399;51.346;12.372;2023-09-07T04:45:04;15.80;89.50
36374;DHT22;22399;51.346;12.372;2023-09-07T04:47:34;15.80;89.60
36374;DHT22;22399;51.346;12.372;2023-09-07T04:50:05;15.80;89.70
36374;DHT22;22399;51.346;12.372;2023-09-07T04:52:33;15.80;90.00
36374;DHT22;22399;51.346;12.372;2023-09-07T04:55:02;15.80;90.30
36374;DHT22;22399;51.346;12.372;2023-09-07T04:57:32;15.80;90.40
36374;DHT22;22399;51.346;12.372;2023-09-07T05:00:01;15.80;90.20
36374;DHT22;22399;51.346;12.372;2023-09-07T05:02:31;15.80;90.30
36374;DHT22;22399;51.346;12.372;2023-09-07T05:05:00;15.80;90.30
36374;DHT22;22399;51.346;12.372;2023-09-07T05:07:29;15.80;90.40
36374;DHT22;22399;51.346;12.372;2023-09-07T05:09:57;15.80;90.50
36374;DHT22;22399;51.346;12.372;2023-09-07T05:12:25;15.90;90.50
36374;DHT22;22399;51.346;12.372;2023-09-07T05:14:54;15.90;90.50
36374;DHT22;22399;51.346;12.372;2023-09-07T05:17:22;16.00;90.50
36374;DHT22;22399;51.346;12.372;2023-09-07T05:19:52;16.00;90.50
36374;DHT22;22399;51.346;12.372;2023-09-07T05:22:20;16.10;90.60
36374;DHT22;22399;51.346;12.372;2023-09-07T05:24:49;16.20;90.60
36374;DHT22;22399;51.346;12.372;2023-09-07T05:27:17;16.30;90.60
36374;DHT22;22399;51.346;12.372;2023-09-07T05:29:46;16.40;90.90
36374;DHT22;22399;51.346;12.372;2023-09-07T05:32:14;16.40;90.50
36374;DHT22;22399;51.346;12.372;2023-09-07T05:34:42;16.60;90.60
36374;DHT22;22399;51.346;12.372;2023-09-07T05:37:12;16.70;90.40
36374;DHT22;22399;51.346;12.372;2023-09-07T05:39:41;16.80;90.30
36374;DHT22;22399;51.346;12.372;2023-09-07T05:42:09;16.90;90.30
36374;DHT22;22399;51.346;12.372;2023-09-07T05:44:37;17.00;90.20
36374;DHT22;22399;51.346;12.372;2023-09-07T05:47:05;17.20;90.10
36374;DHT22;22399;51.346;12.372;2023-09-07T05:49:34;17.30;90.20
36374;DHT22;22399;51.346;12.372;2023-09-07T05:52:02;17.60;90.50
36374;DHT22;22399;51.346;12.372;2023-09-07T05:54:36;18.10;90.50
36374;DHT22;22399;51.346;12.372;2023-09-07T05:57:04;18.70;90.40
36374;DHT22;22399;51.346;12.372;2023-09-07T05:59:32;19.40;90.10
36374;DHT22;22399;51.346;12.372;2023-09-07T06:02:01;19.80;89.10
36374;DHT22;22399;51.346;12.372;2023-09-07T06:04:30;20.20;87.80
36374;DHT22;22399;51.346;12.372;2023-09-07T06:06:59;20.50;86.90
36374;DHT22;22399;51.346;12.372;2023-09-07T06:09:27;20.80;86.30
36374;DHT22;22399;51.346;12.372;2023-09-07T06:11:58;21.10;85.30
36374;DHT22;22399;51.346;12.372;2023-09-07T06:14:26;21.40;85.00
36374;DHT22;22399;51.346;12.372;2023-09-07T06:16:55;21.70;83.20
36374;DHT22;22399;51.346;12.372;2023-09-07T06:19:23;21.50;82.60
36374;DHT22;22399;51.346;12.372;2023-09-07T06:21:52;21.70;82.60
36374;DHT22;22399;51.346;12.372;2023-09-07T06:24:21;22.00;82.60
36374;DHT22;22399;51.346;12.372;2023-09-07T06:26:49;22.60;81.80
36374;DHT22;22399;51.346;12.372;2023-09-07T06:29:18;23.10;80.40
36374;DHT22;22399;51.346;12.372;2023-09-07T06:31:47;23.30;78.60
36374;DHT22;22399;51.346;12.372;2023-09-07T06:34:17;23.60;78.20
36374;DHT22;22399;51.346;12.372;2023-09-07T06:36:46;23.80;77.40
36374;DHT22;22399;51.346;12.372;2023-09-07T06:39:18;23.90;76.90
36374;DHT22;22399;51.346;12.372;2023-09-07T06:41:48;23.90;76.40
36374;DHT22;22399;51.346;12.372;2023-09-07T06:44:20;24.30;75.40
36374;DHT22;22399;51.346;12.372;2023-09-07T06:46:49;24.30;75.00
36374;DHT22;22399;51.346;12.372;2023-09-07T06:49:18;24.20;74.30
36374;DHT22;22399;51.346;12.372;2023-09-07T06:51:47;24.30;74.70
36374;DHT22;22399;51.346;12.372;2023-09-07T06:54:15;24.50;74.00
36374;DHT22;22399;51.346;12.372;2023-09-07T06:56:44;24.60;73.40
36374;DHT22;22399;51.346;12.372;2023-09-07T06:59:12;24.40;73.20
36374;DHT22;22399;51.346;12.372;2023-09-07T07:01:42;24.50;72.50
36374;DHT22;22399;51.346;12.372;2023-09-07T07:04:11;24.30;72.50
36374;DHT22;22399;51.346;12.372;2023-09-07T07:06:39;24.50;72.50
36374;DHT22;22399;51.346;12.372;2023-09-07T07:09:08;24.50;71.80
36374;DHT22;22399;51.346;12.372;2023-09-07T07:11:38;24.70;71.50
36374;DHT22;22399;51.346;12.372;2023-09-07T07:14:08;25.20;71.20
36374;DHT22;22399;51.346;12.372;2023-09-07T07:16:38;25.70;69.80
36374;DHT22;22399;51.346;12.372;2023-09-07T07:19:08;25.90;68.90
36374;DHT22;22399;51.346;12.372;2023-09-07T07:21:37;25.90;68.80
36374;DHT22;22399;51.346;12.372;2023-09-07T07:24:08;25.90;68.40
36374;DHT22;22399;51.346;12.372;2023-09-07T07:26:37;26.00;68.50
36374;DHT22;22399;51.346;12.372;2023-09-07T07:29:05;26.00;67.60
36374;DHT22;22399;51.346;12.372;2023-09-07T07:31:34;26.20;67.40
36374;DHT22;22399;51.346;12.372;2023-09-07T07:34:03;26.50;66.50
36374;DHT22;22399;51.346;12.372;2023-09-07T07:36:33;26.20;66.00
36374;DHT22;22399;51.346;12.372;2023-09-07T07:39:02;26.30;66.50
36374;DHT22;22399;51.346;12.372;2023-09-07T07:41:31;26.60;66.00
36374;DHT22;22399;51.346;12.372;2023-09-07T07:43:59;27.30;65.10
36374;DHT22;22399;51.346;12.372;2023-09-07T07:46:27;27.60;64.00
36374;DHT22;22399;51.346;12.372;2023-09-07T07:48:56;27.60;63.40
36374;DHT22;22399;51.346;12.372;2023-09-07T07:51:24;28.00;62.70
36374;DHT22;22399;51.346;12.372;2023-09-07T07:53:56;28.10;62.30
36374;DHT22;22399;51.346;12.372;2023-09-07T07:56:25;28.20;62.00
36374;DHT22;22399;51.346;12.372;2023-09-07T07:58:55;28.30;61.20
36374;DHT22;22399;51.346;12.372;2023-09-07T08:01:23;28.70;60.60
36374;DHT22;22399;51.346;12.372;2023-09-07T08:03:54;28.70;60.10
36374;DHT22;22399;51.346;12.372;2023-09-07T08:06:24;28.50;59.70
36374;DHT22;22399;51.346;12.372;2023-09-07T08:08:52;27.80;60.00
36374;DHT22;22399;51.346;12.372;2023-09-07T08:11:22;27.80;60.60
36374;DHT22;22399;51.346;12.372;2023-09-07T08:13:52;28.30;60.10
36374;DHT22;22399;51.346;12.372;2023-09-07T08:16:20;28.70;59.50
36374;DHT22;22399;51.346;12.372;2023-09-07T08:18:49;29.20;58.90
36374;DHT22;22399;51.346;12.372;2023-09-07T08:21:18;29.20;58.10
36374;DHT22;22399;51.346;12.372;2023-09-07T08:23:46;29.20;58.10
36374;DHT22;22399;51.346;12.372;2023-09-07T08:26:15;29.50;57.90
36374;DHT22;22399;51.346;12.372;2023-09-07T08:28:46;29.20;57.50
36374;DHT22;22399;51.346;12.372;2023-09-07T08:31:15;28.70;57.70
36374;DHT22;22399;51.346;12.372;2023-09-07T08:33:49;28.60;58.20
36374;DHT22;22399;51.346;12.372;2023-09-07T08:36:18;28.40;57.90
36374;DHT22;22399;51.346;12.372;2023-09-07T08:38:50;28.40;58.00
36374;DHT22;22399;51.346;12.372;2023-09-07T08:41:21;28.50;58.30
36374;DHT22;22399;51.346;12.372;2023-09-07T08:43:53;28.60;57.40
36374;DHT22;22399;51.346;12.372;2023-09-07T08:46:22;28.60;57.30
36374;DHT22;22399;51.346;12.372;2023-09-07T08:48:51;28.50;56.90
36374;DHT22;22399;51.346;12.372;2023-09-07T08:51:24;28.70;57.00
36374;DHT22;22399;51.346;12.372;2023-09-07T08:53:55;29.00;56.50
36374;DHT22;22399;51.346;12.372;2023-09-07T08:56:24;29.00;56.00
36374;DHT22;22399;51.346;12.372;2023-09-07T08:58:54;28.90;56.00
36374;DHT22;22399;51.346;12.372;2023-09-07T09:01:22;29.20;55.80
36374;DHT22;22399;51.346;12.372;2023-09-07T09:03:52;29.70;55.40
36374;DHT22;22399;51.346;12.372;2023-09-07T09:06:21;29.80;54.90
36374;DHT22;22399;51.346;12.372;2023-09-07T09:08:53;29.50;54.60
36374;DHT22;22399;51.346;12.372;2023-09-07T09:11:22;29.40;54.90
36374;DHT22;22399;51.346;12.372;2023-09-07T09:13:52;29.50;54.60
36374;DHT22;22399;51.346;12.372;2023-09-07T09:16:22;30.00;54.10
36374;DHT22;22399;51.346;12.372;2023-09-07T09:18:51;29.80;53.50
36374;DHT22;22399;51.346;12.372;2023-09-07T09:21:21;30.00;53.90
36374;DHT22;22399;51.346;12.372;2023-09-07T09:23:50;30.40;53.10
36374;DHT22;22399;51.346;12.372;2023-09-07T09:26:20;30.60;52.60
36374;DHT22;22399;51.346;12.372;2023-09-07T09:28:48;31.10;52.30
36374;DHT22;22399;51.346;12.372;2023-09-07T09:31:18;30.90;51.80
36374;DHT22;22399;51.346;12.372;2023-09-07T09:33:49;30.90;52.00
36374;DHT22;22399;51.346;12.372;2023-09-07T09:36:18;31.10;51.60
36374;DHT22;22399;51.346;12.372;2023-09-07T09:38:48;31.10;51.20
36374;DHT22;22399;51.346;12.372;2023-09-07T09:41:17;30.90;51.20
36374;DHT22;22399;51.346;12.372;2023-09-07T09:43:46;30.70;51.20
36374;DHT22;22399;51.346;12.372;2023-09-07T09:46:16;30.80;51.20
36374;DHT22;22399;51.346;12.372;2023-09-07T09:48:45;30.60;50.90
36374;DHT22;22399;51.346;12.372;2023-09-07T09:51:15;30.40;50.90
36374;DHT22;22399;51.346;12.372;2023-09-07T09:53:44;30.40;51.60
36374;DHT22;22399;51.346;12.372;2023-09-07T09:56:12;30.50;50.50
36374;DHT22;22399;51.346;12.372;2023-09-07T09:58:41;30.40;50.10
36374;DHT22;22399;51.346;12.372;2023-09-07T10:01:10;30.30;50.20
36374;DHT22;22399;51.346;12.372;2023-09-07T10:03:45;30.30;50.30
36374;DHT22;22399;51.346;12.372;2023-09-07T10:06:22;30.50;50.00
36374;DHT22;22399;51.346;12.372;2023-09-07T10:08:58;30.70;49.80
36374;DHT22;22399;51.346;12.372;2023-09-07T10:11:29;30.80;49.40
36374;DHT22;22399;51.346;12.372;2023-09-07T10:13:58;30.80;49.50
36374;DHT22;22399;51.346;12.372;2023-09-07T10:16:27;31.10;49.50
36374;DHT22;22399;51.346;12.372;2023-09-07T10:18:55;31.50;49.00
36374;DHT22;22399;51.346;12.372;2023-09-07T10:21:26;31.20;48.90
36374;DHT22;22399;51.346;12.372;2023-09-07T10:23:54;31.40;49.00
36374;DHT22;22399;51.346;12.372;2023-09-07T10:26:22;31.40;48.70
36374;DHT22;22399;51.346;12.372;2023-09-07T10:28:59;31.00;48.80
36374;DHT22;22399;51.346;12.372;2023-09-07T10:31:28;30.60;48.90
36374;DHT22;22399;51.346;12.372;2023-09-07T10:34:17;30.60;49.10
36374;DHT22;22399;51.346;12.372;2023-09-07T10:36:47;30.60;49.00
36374;DHT22;22399;51.346;12.372;2023-09-07T10:39:18;30.70;48.90
36374;DHT22;22399;51.346;12.372;2023-09-07T10:41:46;31.00;48.60
36374;DHT22;22399;51.346;12.372;2023-09-07T10:44:14;31.30;48.50
36374;DHT22;22399;51.346;12.372;2023-09-07T10:46:43;31.50;48.00
36374;DHT22;22399;51.346;12.372;2023-09-07T10:49:12;31.70;47.80
36374;DHT22;22399;51.346;12.372;2023-09-07T10:51:42;31.60;47.30
36374;DHT22;22399;51.346;12.372;2023-09-07T10:54:16;31.80;47.30
36374;DHT22;22399;51.346;12.372;2023-09-07T10:56:45;32.00;47.30
36374;DHT22;22399;51.346;12.372;2023-09-07T10:59:14;32.00;46.90
36374;DHT22;22399;51.346;12.372;2023-09-07T11:01:44;31.90;46.90
36374;DHT22;22399;51.346;12.372;2023-09-07T11:04:13;32.00;46.90
36374;DHT22;22399;51.346;12.372;2023-09-07T11:06:44;32.00;46.40
36374;DHT22;22399;51.346;12.372;2023-09-07T11:09:13;31.20;47.10
36374;DHT22;22399;51.346;12.372;2023-09-07T11:11:46;31.00;46.90
36374;DHT22;22399;51.346;12.372;2023-09-07T11:14:15;31.20;47.00
36374;DHT22;22399;51.346;12.372;2023-09-07T11:16:43;31.50;46.30
36374;DHT22;22399;51.346;12.372;2023-09-07T11:19:13;31.50;45.80
36374;DHT22;22399;51.346;12.372;2023-09-07T11:21:42;31.60;45.40
36374;DHT22;22399;51.346;12.372;2023-09-07T11:24:10;31.60;45.60
36374;DHT22;22399;51.346;12.372;2023-09-07T11:26:42;31.80;45.50
36374;DHT22;22399;51.346;12.372;2023-09-07T11:29:15;31.70;45.40
36374;DHT22;22399;51.346;12.372;2023-09-07T11:31:43;31.40;45.80
36374;DHT22;22399;51.346;12.372;2023-09-07T11:34:14;31.80;45.80
36374;DHT22;22399;51.346;12.372;2023-09-07T11:36:43;31.70;45.30
36374;DHT22;22399;51.346;12.372;2023-09-07T11:39:11;31.70;45.80
36374;DHT22;22399;51.346;12.372;2023-09-07T11:41:41;31.70;44.80
36374;DHT22;22399;51.346;12.372;2023-09-07T11:44:10;31.60;44.60
36374;DHT22;22399;51.346;12.372;2023-09-07T11:46:41;31.20;44.40
36374;DHT22;22399;51.346;12.372;2023-09-07T11:49:10;31.20;44.40
36374;DHT22;22399;51.346;12.372;2023-09-07T11:51:38;31.20;44.20
36374;DHT22;22399;51.346;12.372;2023-09-07T11:54:06;31.20;44.40
36374;DHT22;22399;51.346;12.372;2023-09-07T11:56:34;31.30;44.10
36374;DHT22;22399;51.346;12.372;2023-09-07T11:59:06;31.30;44.10
36374;DHT22;22399;51.346;12.372;2023-09-07T12:01:35;31.60;44.00
36374;DHT22;22399;51.346;12.372;2023-09-07T12:04:08;31.80;43.80
36374;DHT22;22399;51.346;12.372;2023-09-07T12:06:38;31.80;43.50
36374;DHT22;22399;51.346;12.372;2023-09-07T12:09:06;31.60;43.30
36374;DHT22;22399;51.346;12.372;2023-09-07T12:11:36;31.40;43.50
36374;DHT22;22399;51.346;12.372;2023-09-07T12:14:04;31.50;43.50
36374;DHT22;22399;51.346;12.372;2023-09-07T12:16:32;31.30;43.50
36374;DHT22;22399;51.346;12.372;2023-09-07T12:19:01;31.30;43.60
36374;DHT22;22399;51.346;12.372;2023-09-07T12:21:31;31.60;43.70
36374;DHT22;22399;51.346;12.372;2023-09-07T12:23:59;31.70;43.40
36374;DHT22;22399;51.346;12.372;2023-09-07T12:26:28;31.70;43.40
36374;DHT22;22399;51.346;12.372;2023-09-07T12:28:56;31.60;43.50
36374;DHT22;22399;51.346;12.372;2023-09-07T12:31:25;31.60;43.60
36374;DHT22;22399;51.346;12.372;2023-09-07T12:33:54;31.90;43.50
36374;DHT22;22399;51.346;12.372;2023-09-07T12:36:25;32.00;43.20
36374;DHT22;22399;51.346;12.372;2023-09-07T12:38:58;31.90;43.10
36374;DHT22;22399;51.346;12.372;2023-09-07T12:41:29;31.70;43.10
36374;DHT22;22399;51.346;12.372;2023-09-07T12:44:06;31.70;43.10
36374;DHT22;22399;51.346;12.372;2023-09-07T12:46:39;31.90;43.00
36374;DHT22;22399;51.346;12.372;2023-09-07T12:49:08;32.10;42.70
36374;DHT22;22399;51.346;12.372;2023-09-07T12:51:36;32.10;42.40
36374;DHT22;22399;51.346;12.372;2023-09-07T12:54:05;32.10;42.10
36374;DHT22;22399;51.346;12.372;2023-09-07T12:56:34;32.30;42.10
36374;DHT22;22399;51.346;12.372;2023-09-07T12:59:02;32.30;41.80
36374;DHT22;22399;51.346;12.372;2023-09-07T13:01:31;32.40;41.60
36374;DHT22;22399;51.346;12.372;2023-09-07T13:04:00;32.30;41.40
36374;DHT22;22399;51.346;12.372;2023-09-07T13:06:28;32.40;41.20
36374;DHT22;22399;51.346;12.372;2023-09-07T13:08:56;32.50;41.00
36374;DHT22;22399;51.346;12.372;2023-09-07T13:11:26;32.50;40.80
36374;DHT22;22399;51.346;12.372;2023-09-07T13:13:54;32.50;40.50
36374;DHT22;22399;51.346;12.372;2023-09-07T13:16:22;32.60;40.70
36374;DHT22;22399;51.346;12.372;2023-09-07T13:18:50;32.70;40.60
36374;DHT22;22399;51.346;12.372;2023-09-07T13:21:19;32.60;40.40
36374;DHT22;22399;51.346;12.372;2023-09-07T13:23:48;32.60;40.30
36374;DHT22;22399;51.346;12.372;2023-09-07T13:26:16;32.70;40.30
36374;DHT22;22399;51.346;12.372;2023-09-07T13:28:46;32.80;40.20
36374;DHT22;22399;51.346;12.372;2023-09-07T13:31:14;32.80;40.10
36374;DHT22;22399;51.346;12.372;2023-09-07T13:33:44;32.80;40.20
36374;DHT22;22399;51.346;12.372;2023-09-07T13:36:12;32.60;40.70
36374;DHT22;22399;51.346;12.372;2023-09-07T13:38:41;32.80;40.20
36374;DHT22;22399;51.346;12.372;2023-09-07T13:41:09;32.60;39.90
36374;DHT22;22399;51.346;12.372;2023-09-07T13:43:38;32.40;40.00
36374;DHT22;22399;51.346;12.372;2023-09-07T13:46:07;32.60;39.90
36374;DHT22;22399;51.346;12.372;2023-09-07T13:48:36;32.70;39.80
36374;DHT22;22399;51.346;12.372;2023-09-07T13:51:04;32.70;39.60
36374;DHT22;22399;51.346;12.372;2023-09-07T13:53:33;32.60;39.70
36374;DHT22;22399;51.346;12.372;2023-09-07T13:56:02;32.80;39.60
36374;DHT22;22399;51.346;12.372;2023-09-07T13:58:30;33.00;39.50
36374;DHT22;22399;51.346;12.372;2023-09-07T14:00:58;33.20;39.20
36374;DHT22;22399;51.346;12.372;2023-09-07T14:03:28;33.00;39.10
36374;DHT22;22399;51.346;12.372;2023-09-07T14:05:57;33.10;39.10
36374;DHT22;22399;51.346;12.372;2023-09-07T14:08:26;33.00;39.00
36374;DHT22;22399;51.346;12.372;2023-09-07T14:10:54;33.00;39.10
36374;DHT22;22399;51.346;12.372;2023-09-07T14:13:26;33.00;39.80
36374;DHT22;22399;51.346;12.372;2023-09-07T14:15:57;32.70;39.00
36374;DHT22;22399;51.346;12.372;2023-09-07T14:18:25;31.90;39.80
36374;DHT22;22399;51.346;12.372;2023-09-07T14:20:55;31.30;40.60
36374;DHT22;22399;51.346;12.372;2023-09-07T14:23:24;31.00;41.20
36374;DHT22;22399;51.346;12.372;2023-09-07T14:25:53;30.70;41.50
36374;DHT22;22399;51.346;12.372;2023-09-07T14:28:22;30.50;41.70
36374;DHT22;22399;51.346;12.372;2023-09-07T14:30:50;30.40;41.80
36374;DHT22;22399;51.346;12.372;2023-09-07T14:33:21;30.30;41.90
36374;DHT22;22399;51.346;12.372;2023-09-07T14:35:51;30.30;41.90
36374;DHT22;22399;51.346;12.372;2023-09-07T14:38:22;30.30;41.70
36374;DHT22;22399;51.346;12.372;2023-09-07T14:40:54;30.20;41.60
36374;DHT22;22399;51.346;12.372;2023-09-07T14:43:22;30.10;41.70
36374;DHT22;22399;51.346;12.372;2023-09-07T14:45:51;30.20;41.80
36374;DHT22;22399;51.346;12.372;2023-09-07T14:48:19;30.20;41.80
36374;DHT22;22399;51.346;12.372;2023-09-07T14:51:00;30.10;41.60
36374;DHT22;22399;51.346;12.372;2023-09-07T14:53:45;30.00;41.80
36374;DHT22;22399;51.346;12.372;2023-09-07T14:56:13;29.90;41.80
36374;DHT22;22399;51.346;12.372;2023-09-07T14:58:41;29.80;41.70
36374;DHT22;22399;51.346;12.372;2023-09-07T15:01:11;29.80;41.70
36374;DHT22;22399;51.346;12.372;2023-09-07T15:03:40;29.80;41.80
36374;DHT22;22399;51.346;12.372;2023-09-07T15:06:08;29.80;41.70
36374;DHT22;22399;51.346;12.372;2023-09-07T15:08:39;29.70;41.70
36374;DHT22;22399;51.346;12.372;2023-09-07T15:11:09;29.70;41.80
36374;DHT22;22399;51.346;12.372;2023-09-07T15:13:39;29.70;42.50
36374;DHT22;22399;51.346;12.372;2023-09-07T15:16:07;29.70;41.80
36374;DHT22;22399;51.346;12.372;2023-09-07T15:18:37;29.60;41.80
36374;DHT22;22399;51.346;12.372;2023-09-07T15:21:10;29.50;41.80
36374;DHT22;22399;51.346;12.372;2023-09-07T15:23:39;29.50;41.90
36374;DHT22;22399;51.346;12.372;2023-09-07T15:26:08;29.50;41.80
36374;DHT22;22399;51.346;12.372;2023-09-07T15:28:38;29.40;41.70